createdAt,value
2018-04-02T00:00:42.416Z,6.00
2018-04-02T00:03:08.942Z,5.80
2018-04-02T00:05:35.452Z,5.70
2018-04-02T00:08:02.003Z,5.50
2018-04-02T00:10:29.218Z,5.20
2018-04-02T00:12:55.690Z,5.20
2018-04-02T00:15:22.186Z,5.10
2018-04-02T00:17:48.676Z,5.10
2018-04-02T00:20:15.177Z,5.00
2018-04-02T00:22:41.677Z,4.90
2018-04-02T00:25:08.155Z,4.90
2018-04-02T00:27:34.646Z,4.70
2018-04-02T00:30:01.134Z,4.60
2018-04-02T00:32:28.408Z,4.20
2018-04-02T00:34:54.868Z,4.20
2018-04-02T00:37:22.082Z,4.30
2018-04-02T00:39:48.569Z,4.30
2018-04-02T00:42:15.056Z,4.10
2018-04-02T00:44:41.528Z,4.20
2018-04-02T00:47:08.009Z,4.20
2018-04-02T00:49:34.482Z,4.00
2018-04-02T00:52:01.746Z,4.20
2018-04-02T00:54:28.222Z,4.20
2018-04-02T00:56:54.920Z,4.00
2018-04-02T00:59:21.386Z,3.90
2018-04-02T01:01:47.848Z,3.70
2018-04-02T01:04:15.090Z,4.00
2018-04-02T01:06:41.574Z,4.00
2018-04-02T01:09:08.055Z,3.90
2018-04-02T01:11:34.537Z,3.70
2018-04-02T01:14:01.005Z,3.70
2018-04-02T01:16:27.455Z,3.60
2018-04-02T01:18:53.948Z,3.60
2018-04-02T01:21:20.450Z,3.40
2018-04-02T01:23:47.011Z,3.20
2018-04-02T01:26:13.471Z,3.20
2018-04-02T01:28:40.763Z,3.10
2018-04-02T01:31:07.240Z,3.10
2018-04-02T01:33:33.752Z,2.90
2018-04-02T01:36:01.006Z,2.90
2018-04-02T01:38:28.275Z,2.80
2018-04-02T01:40:55.480Z,2.70
2018-04-02T01:43:22.694Z,3.00
2018-04-02T01:45:49.181Z,3.00
2018-04-02T01:48:15.644Z,2.80
2018-04-02T01:50:42.117Z,2.70
2018-04-02T01:53:08.590Z,2.70
2018-04-02T01:55:35.123Z,2.80
2018-04-02T01:58:01.606Z,2.70
2018-04-02T02:00:28.102Z,2.70
2018-04-02T02:02:55.301Z,2.80
2018-04-02T02:05:21.808Z,2.80
2018-04-02T02:07:48.275Z,2.80
2018-04-02T02:10:14.822Z,3.00
2018-04-02T02:12:41.301Z,3.50
2018-04-02T02:15:07.812Z,3.40
2018-04-02T02:17:34.285Z,3.10
2018-04-02T02:20:00.777Z,3.10
2018-04-02T02:22:27.293Z,3.00
2018-04-02T02:24:53.820Z,3.00
2018-04-02T02:27:20.323Z,2.80
2018-04-02T02:29:46.833Z,2.80
2018-04-02T02:32:14.061Z,2.70
2018-04-02T02:34:40.574Z,2.60
2018-04-02T02:37:07.065Z,2.60
2018-04-02T02:39:33.543Z,2.60
2018-04-02T02:42:00.770Z,2.60
2018-04-02T02:44:27.258Z,2.60
2018-04-02T02:46:53.797Z,2.60
2018-04-02T02:49:20.337Z,2.60
2018-04-02T02:51:46.834Z,2.70
2018-04-02T02:54:13.316Z,2.40
2018-04-02T02:56:39.832Z,2.50
2018-04-02T02:59:06.306Z,2.70
2018-04-02T03:01:32.779Z,2.70
2018-04-02T03:03:59.250Z,2.70
2018-04-02T03:06:25.744Z,2.60
2018-04-02T03:08:52.761Z,2.60
2018-04-02T03:11:19.255Z,2.60
2018-04-02T03:13:45.787Z,2.50
2018-04-02T03:16:12.315Z,2.40
2018-04-02T03:18:38.765Z,2.40
2018-04-02T03:21:05.223Z,2.90
2018-04-02T03:23:32.452Z,2.50
2018-04-02T03:25:58.939Z,2.50
2018-04-02T03:28:25.440Z,2.60
2018-04-02T03:30:52.661Z,2.70
2018-04-02T03:33:19.906Z,2.80
2018-04-02T03:35:46.387Z,2.70
2018-04-02T03:38:13.599Z,2.30
2018-04-02T03:40:40.152Z,2.30
2018-04-02T03:43:07.388Z,2.40
2018-04-02T03:45:33.880Z,2.30
2018-04-02T03:48:00.385Z,2.30
2018-04-02T03:50:27.635Z,2.10
2018-04-02T03:52:54.877Z,2.00
2018-04-02T03:55:22.114Z,2.30
2018-04-02T03:57:48.591Z,2.20
2018-04-02T04:00:15.073Z,2.00
2018-04-02T04:02:41.538Z,1.90
2018-04-02T04:05:08.069Z,1.90
2018-04-02T04:07:35.308Z,1.80
2018-04-02T04:10:01.817Z,1.80
2018-04-02T04:12:28.306Z,1.80
2018-04-02T04:14:54.806Z,1.70
2018-04-02T04:17:21.277Z,1.60
2018-04-02T04:19:47.759Z,1.60
2018-04-02T04:22:14.310Z,1.50
2018-04-02T04:24:40.778Z,1.60
2018-04-02T04:27:07.297Z,1.60
2018-04-02T04:29:33.849Z,1.70
2018-04-02T04:32:00.354Z,1.70
2018-04-02T04:34:26.832Z,1.70
2018-04-02T04:36:53.310Z,1.70
2018-04-02T04:39:19.801Z,1.70
2018-04-02T04:41:46.286Z,1.70
2018-04-02T04:44:12.773Z,1.70
2018-04-02T04:46:39.273Z,1.70
2018-04-02T04:49:06.521Z,1.80
2018-04-02T04:51:33.011Z,1.80
2018-04-02T04:53:59.545Z,1.90
2018-04-02T04:56:26.027Z,1.80
2018-04-02T04:58:52.533Z,1.70
2018-04-02T05:01:19.017Z,1.70
2018-04-02T05:03:45.522Z,1.60
2018-04-02T05:06:11.998Z,1.60
2018-04-02T05:08:38.548Z,1.40
2018-04-02T05:11:05.063Z,1.50
2018-04-02T05:13:31.535Z,1.60
2018-04-02T05:15:58.025Z,1.70
2018-04-02T05:18:24.606Z,1.70
2018-04-02T05:20:51.237Z,1.80
2018-04-02T05:23:17.745Z,1.90
2018-04-02T05:25:44.223Z,2.00
2018-04-02T05:28:10.731Z,2.20
2018-04-02T05:30:37.205Z,2.20
2018-04-02T05:33:03.686Z,2.50
2018-04-02T05:35:30.154Z,2.60
2018-04-02T05:37:56.710Z,2.80
2018-04-02T05:40:23.215Z,2.90
2018-04-02T05:42:49.749Z,3.00
2018-04-02T05:45:16.323Z,3.20
2018-04-02T05:47:42.758Z,3.30
2018-04-02T05:50:09.253Z,3.60
2018-04-02T05:52:35.745Z,3.70
2018-04-02T05:55:03.950Z,4.00
2018-04-02T05:57:31.232Z,4.20
2018-04-02T05:59:57.743Z,4.10
2018-04-02T06:02:24.232Z,4.30
2018-04-02T06:04:50.714Z,4.40
2018-04-02T06:07:17.204Z,4.50
2018-04-02T06:09:44.437Z,4.80
2018-04-02T06:12:10.941Z,4.80
2018-04-02T06:14:37.409Z,5.00
2018-04-02T06:17:03.926Z,5.30
2018-04-02T06:19:30.444Z,5.40
2018-04-02T06:21:56.927Z,5.40
2018-04-02T06:24:23.423Z,5.50
2018-04-02T06:26:49.978Z,5.50
2018-04-02T06:29:16.471Z,5.60
2018-04-02T06:31:42.950Z,5.60
2018-04-02T06:34:09.421Z,5.70
2018-04-02T06:36:35.898Z,5.60
2018-04-02T06:39:02.641Z,5.70
2018-04-02T06:41:29.127Z,5.80
2018-04-02T06:43:55.614Z,5.90
2018-04-02T06:46:22.885Z,6.10
2018-04-02T06:48:49.474Z,6.10
2018-04-02T06:51:16.087Z,6.20
2018-04-02T06:53:42.895Z,6.40
2018-04-02T06:56:09.369Z,6.40
2018-04-02T06:58:35.836Z,6.50
2018-04-02T07:01:02.377Z,6.60
2018-04-02T07:03:28.937Z,6.80
2018-04-02T07:05:55.454Z,6.90
2018-04-02T07:08:22.011Z,7.20
2018-04-02T07:10:48.647Z,7.20
2018-04-02T07:13:15.689Z,7.10
2018-04-02T07:15:42.721Z,7.20
2018-04-02T07:18:09.811Z,7.30
2018-04-02T07:20:37.247Z,7.50
2018-04-02T07:23:04.386Z,7.60
2018-04-02T07:25:31.534Z,7.60
2018-04-02T07:27:58.610Z,7.50
2018-04-02T07:30:25.392Z,7.70
2018-04-02T07:32:52.132Z,8.00
2018-04-02T07:35:19.031Z,7.80
2018-04-02T07:37:46.164Z,8.00
2018-04-02T07:40:13.502Z,8.10
2018-04-02T07:42:40.826Z,8.10
2018-04-02T07:45:07.965Z,8.30
2018-04-02T07:47:48.193Z,8.20
2018-04-02T07:50:22.185Z,8.20
2018-04-02T07:52:54.096Z,8.40
2018-04-02T07:55:24.678Z,8.50
2018-04-02T07:57:59.221Z,8.70
2018-04-02T08:00:36.865Z,8.80
2018-04-02T08:03:13.350Z,8.80
2018-04-02T08:05:41.459Z,9.30
2018-04-02T08:08:11.682Z,9.30
2018-04-02T08:10:43.703Z,9.60
2018-04-02T08:13:10.418Z,9.60
2018-04-02T08:15:43.849Z,10.10
2018-04-02T08:18:17.750Z,10.30
2018-04-02T08:20:44.637Z,10.00
2018-04-02T08:23:11.925Z,10.40
2018-04-02T08:25:38.456Z,10.30
2018-04-02T08:28:04.986Z,10.40
2018-04-02T08:30:31.466Z,10.60
2018-04-02T08:32:58.020Z,10.60
2018-04-02T08:35:24.527Z,11.10
2018-04-02T08:37:51.050Z,11.60
2018-04-02T08:40:17.559Z,12.00
2018-04-02T08:42:44.087Z,12.90
2018-04-02T08:45:11.302Z,13.20
2018-04-02T08:47:37.856Z,13.20
2018-04-02T08:50:04.383Z,13.70
2018-04-02T08:52:30.952Z,14.60
2018-04-02T08:54:57.412Z,14.80
2018-04-02T08:57:23.934Z,15.20
2018-04-02T08:59:50.529Z,15.40
2018-04-02T09:02:17.013Z,15.40
2018-04-02T09:04:43.492Z,16.30
2018-04-02T09:07:10.075Z,16.00
2018-04-02T09:09:37.285Z,16.40
2018-04-02T09:12:03.799Z,16.30
2018-04-02T09:14:30.287Z,16.60
2018-04-02T09:16:56.758Z,16.30
2018-04-02T09:19:23.256Z,16.20
2018-04-02T09:21:49.776Z,16.60
2018-04-02T09:24:17.005Z,16.30
2018-04-02T09:26:43.514Z,16.30
2018-04-02T09:29:10.021Z,15.90
2018-04-02T09:31:36.561Z,16.00
2018-04-02T09:34:03.078Z,15.70
2018-04-02T09:36:29.582Z,16.50
2018-04-02T09:38:56.061Z,16.40
2018-04-02T09:41:22.571Z,16.60
2018-04-02T09:43:49.784Z,16.70
2018-04-02T09:46:16.335Z,16.70
2018-04-02T09:48:42.850Z,17.20
2018-04-02T09:51:09.323Z,18.20
2018-04-02T09:53:36.546Z,17.80
2018-04-02T09:56:03.116Z,17.80
2018-04-02T09:58:29.657Z,18.40
2018-04-02T10:01:00.074Z,18.70
2018-04-02T10:03:33.368Z,18.50
2018-04-02T10:06:00.583Z,18.50
2018-04-02T10:08:27.083Z,18.70
2018-04-02T10:10:53.555Z,18.90
2018-04-02T10:13:20.041Z,19.20
2018-04-02T10:15:46.528Z,18.30
2018-04-02T10:18:12.993Z,19.00
2018-04-02T10:20:40.287Z,19.40
2018-04-02T10:23:07.519Z,19.00
2018-04-02T10:25:34.034Z,19.00
2018-04-02T10:28:01.264Z,18.80
2018-04-02T10:30:27.743Z,18.90
2018-04-02T10:32:54.256Z,18.70
2018-04-02T10:35:21.485Z,19.60
2018-04-02T10:37:47.980Z,19.60
2018-04-02T10:40:14.530Z,19.90
2018-04-02T10:42:41.008Z,20.80
2018-04-02T10:45:07.479Z,19.50
2018-04-02T10:47:34.007Z,19.30
2018-04-02T10:50:00.513Z,20.50
2018-04-02T10:52:27.797Z,20.70
2018-04-02T10:54:54.320Z,20.60
2018-04-02T10:57:20.843Z,19.80
2018-04-02T10:59:48.069Z,20.30
2018-04-02T11:02:14.594Z,20.30
2018-04-02T11:04:41.076Z,20.10
2018-04-02T11:07:07.559Z,21.50
2018-04-02T11:09:34.037Z,19.80
2018-04-02T11:12:01.303Z,21.10
2018-04-02T11:14:27.842Z,21.10
2018-04-02T11:16:54.396Z,20.00
2018-04-02T11:19:20.906Z,20.60
2018-04-02T11:21:47.376Z,21.00
2018-04-02T11:24:13.921Z,21.60
2018-04-02T11:26:40.496Z,21.50
2018-04-02T11:29:07.707Z,20.80
2018-04-02T11:31:34.163Z,20.80
2018-04-02T11:34:00.640Z,20.60
2018-04-02T11:36:27.126Z,19.90
2018-04-02T11:38:53.614Z,20.00
2018-04-02T11:41:25.572Z,21.00
2018-04-02T11:43:53.153Z,22.70
2018-04-02T11:46:19.648Z,22.70
2018-04-02T11:48:46.146Z,22.80
2018-04-02T11:51:12.834Z,22.70
2018-04-02T11:53:39.340Z,20.70
2018-04-02T11:56:05.851Z,21.70
2018-04-02T11:58:33.131Z,23.10
2018-04-02T12:01:00.463Z,22.80
2018-04-02T12:03:26.977Z,22.80
2018-04-02T12:05:59.677Z,23.10
2018-04-02T12:08:26.466Z,23.30
2018-04-02T12:10:53.760Z,23.50
2018-04-02T12:13:20.328Z,23.50
2018-04-02T12:15:46.900Z,22.60
2018-04-02T12:18:13.437Z,23.80
2018-04-02T12:20:40.068Z,22.40
2018-04-02T12:23:06.761Z,22.50
2018-04-02T12:25:33.296Z,24.00
2018-04-02T12:27:59.783Z,24.10
2018-04-02T12:30:26.278Z,24.40
2018-04-02T12:32:52.776Z,22.60
2018-04-02T12:35:19.445Z,22.00
2018-04-02T12:37:45.994Z,22.90
2018-04-02T12:40:12.556Z,23.60
2018-04-02T12:42:39.298Z,23.70
2018-04-02T12:45:05.935Z,23.20
2018-04-02T12:47:33.364Z,23.90
2018-04-02T12:50:00.019Z,23.90
2018-04-02T12:52:27.370Z,24.50
2018-04-02T12:54:54.739Z,22.60
2018-04-02T12:57:21.376Z,22.50
2018-04-02T12:59:48.730Z,23.70
2018-04-02T13:02:16.085Z,24.90
2018-04-02T13:04:43.580Z,24.30
2018-04-02T13:07:10.358Z,24.30
2018-04-02T13:09:37.765Z,23.70
2018-04-02T13:12:04.380Z,23.70
2018-04-02T13:14:30.970Z,22.60
2018-04-02T13:16:57.559Z,23.30
2018-04-02T13:19:24.146Z,25.20
2018-04-02T13:21:50.720Z,25.10
2018-04-02T13:24:18.033Z,23.10
2018-04-02T13:26:44.572Z,23.20
2018-04-02T13:29:11.074Z,24.60
2018-04-02T13:31:37.598Z,24.50
2018-04-02T13:34:04.077Z,24.40
2018-04-02T13:36:30.616Z,24.00
2018-04-02T13:38:57.095Z,23.10
2018-04-02T13:41:23.589Z,24.40
2018-04-02T13:43:50.082Z,24.50
2018-04-02T13:46:16.584Z,23.70
2018-04-02T13:48:43.804Z,24.40
2018-04-02T13:51:10.268Z,24.40
2018-04-02T13:53:37.556Z,25.60
2018-04-02T13:56:04.044Z,25.50
2018-04-02T13:58:30.602Z,26.30
2018-04-02T14:00:57.862Z,26.10
2018-04-02T14:03:24.471Z,26.10
2018-04-02T14:05:51.017Z,25.70
2018-04-02T14:08:17.555Z,25.70
2018-04-02T14:10:44.811Z,24.80
2018-04-02T14:13:12.051Z,24.90
2018-04-02T14:15:38.587Z,24.90
2018-04-02T14:18:05.082Z,25.20
2018-04-02T14:20:31.653Z,24.80
2018-04-02T14:22:58.135Z,24.70
2018-04-02T14:25:24.658Z,23.20
2018-04-02T14:27:51.206Z,21.80
2018-04-02T14:30:17.695Z,21.00
2018-04-02T14:32:44.261Z,20.20
2018-04-02T14:35:10.806Z,20.60
2018-04-02T14:37:37.320Z,20.00
2018-04-02T14:40:04.538Z,19.70
2018-04-02T14:42:31.050Z,19.70
2018-04-02T14:44:58.105Z,19.20
2018-04-02T14:47:24.594Z,19.10
2018-04-02T14:49:51.167Z,19.10
2018-04-02T14:52:17.642Z,18.80
2018-04-02T14:54:44.169Z,18.50
2018-04-02T14:57:10.648Z,18.50
2018-04-02T14:59:37.260Z,18.50
2018-04-02T15:02:03.734Z,18.30
2018-04-02T15:04:30.218Z,18.30
2018-04-02T15:06:56.684Z,18.20
2018-04-02T15:09:23.172Z,18.20
2018-04-02T15:11:49.659Z,18.30
2018-04-02T15:14:16.159Z,18.20
2018-04-02T15:16:42.721Z,17.90
2018-04-02T15:19:09.952Z,18.00
2018-04-02T15:21:36.449Z,18.00
2018-04-02T15:24:02.959Z,18.00
2018-04-02T15:26:29.443Z,18.10
2018-04-02T15:28:55.957Z,18.20
2018-04-02T15:31:22.466Z,18.10
2018-04-02T15:33:48.995Z,18.10
2018-04-02T15:36:15.450Z,17.80
2018-04-02T15:38:41.959Z,17.90
2018-04-02T15:41:08.445Z,17.70
2018-04-02T15:43:34.924Z,17.70
2018-04-02T15:46:01.401Z,17.60
2018-04-02T15:48:27.891Z,17.60
2018-04-02T15:50:54.434Z,17.50
2018-04-02T15:53:20.967Z,17.40
2018-04-02T15:55:47.472Z,17.50
2018-04-02T15:58:13.988Z,17.40
2018-04-02T16:00:40.465Z,17.40
2018-04-02T16:03:07.754Z,17.40
2018-04-02T16:05:34.206Z,17.40
2018-04-02T16:08:00.702Z,17.30
2018-04-02T16:10:27.210Z,17.30
2018-04-02T16:12:54.508Z,17.20
2018-04-02T16:15:21.054Z,17.20
2018-04-02T16:17:48.320Z,17.10
2018-04-02T16:20:14.788Z,17.10
2018-04-02T16:22:42.042Z,16.90
2018-04-02T16:25:09.340Z,16.80
2018-04-02T16:27:35.875Z,16.90
2018-04-02T16:30:02.421Z,16.80
2018-04-02T16:32:28.969Z,16.80
2018-04-02T16:34:55.497Z,16.60
2018-04-02T16:37:22.176Z,16.40
2018-04-02T16:39:49.562Z,16.10
2018-04-02T16:42:16.093Z,16.10
2018-04-02T16:44:42.615Z,15.90
2018-04-02T16:47:09.093Z,15.80
2018-04-02T16:49:35.577Z,15.70
2018-04-02T16:52:02.040Z,15.50
2018-04-02T16:54:28.518Z,15.30
2018-04-02T16:56:55.034Z,15.20
2018-04-02T16:59:21.638Z,15.00
2018-04-02T17:01:48.248Z,14.80
2018-04-02T17:04:15.450Z,14.70
2018-04-02T17:06:41.952Z,14.60
2018-04-02T17:09:09.249Z,14.40
2018-04-02T17:11:35.773Z,14.30
2018-04-02T17:14:02.269Z,14.20
2018-04-02T17:16:29.483Z,14.10
2018-04-02T17:18:56.686Z,14.00
2018-04-02T17:21:23.312Z,14.00
2018-04-02T17:23:50.720Z,13.60
2018-04-02T17:26:17.253Z,13.60
2018-04-02T17:28:43.748Z,13.50
2018-04-02T17:31:10.269Z,13.40
2018-04-02T17:33:36.755Z,13.30
2018-04-02T17:36:03.330Z,13.10
2018-04-02T17:38:29.802Z,12.90
2018-04-02T17:40:56.314Z,12.70
2018-04-02T17:43:23.659Z,13.00
2018-04-02T17:45:50.302Z,13.00
2018-04-02T17:48:16.781Z,13.10
2018-04-02T17:50:43.258Z,13.10
2018-04-02T17:53:09.730Z,13.20
2018-04-02T17:55:36.230Z,13.30
2018-04-02T17:58:02.816Z,13.30
2018-04-02T18:00:29.343Z,13.50
2018-04-02T18:02:55.902Z,13.50
2018-04-02T18:05:22.424Z,13.50
2018-04-02T18:07:49.045Z,13.40
2018-04-02T18:10:15.531Z,13.30
2018-04-02T18:12:42.056Z,13.20
2018-04-02T18:15:08.544Z,13.10
2018-04-02T18:17:35.027Z,13.10
2018-04-02T18:20:01.525Z,13.00
2018-04-02T18:22:28.122Z,13.00
2018-04-02T18:24:54.677Z,13.00
2018-04-02T18:27:21.158Z,13.00
2018-04-02T18:29:48.442Z,12.90
2018-04-02T18:32:17.944Z,12.90
2018-04-02T18:34:44.481Z,12.80
2018-04-02T18:37:11.301Z,12.70
2018-04-02T18:39:37.774Z,12.60
2018-04-02T18:42:05.019Z,12.30
2018-04-02T18:44:32.249Z,12.30
2018-04-02T18:46:58.770Z,12.30
2018-04-02T18:49:25.288Z,12.20
2018-04-02T18:51:51.736Z,12.20
2018-04-02T18:54:18.223Z,12.10
2018-04-02T18:56:45.441Z,11.90
2018-04-02T18:59:11.918Z,11.90
2018-04-02T19:01:38.432Z,11.80
2018-04-02T19:04:05.682Z,11.60
2018-04-02T19:06:32.162Z,11.50
2018-04-02T19:08:58.651Z,11.40
2018-04-02T19:11:25.914Z,11.10
2018-04-02T19:13:52.394Z,11.00
2018-04-02T19:16:18.864Z,11.00
2018-04-02T19:18:45.342Z,11.00
2018-04-02T19:21:11.821Z,10.90
2018-04-02T19:23:38.311Z,10.90
2018-04-02T19:26:04.836Z,10.80
2018-04-02T19:28:31.334Z,10.70
2018-04-02T19:30:57.927Z,10.60
2018-04-02T19:33:24.454Z,10.50
2018-04-02T19:35:50.957Z,10.40
2018-04-02T19:38:17.453Z,10.40
2018-04-02T19:40:43.980Z,10.40
2018-04-02T19:43:10.465Z,10.20
2018-04-02T19:45:37.738Z,9.90
2018-04-02T19:48:04.258Z,9.80
2018-04-02T19:50:30.781Z,9.70
2018-04-02T19:52:57.312Z,9.70
2018-04-02T19:55:23.804Z,9.70
2018-04-02T19:57:50.309Z,9.70
2018-04-02T20:00:16.831Z,9.50
2018-04-02T20:02:43.359Z,9.50
2018-04-02T20:05:10.661Z,9.30
2018-04-02T20:07:37.180Z,9.30
2018-04-02T20:10:03.739Z,9.20
2018-04-02T20:12:30.319Z,9.40
2018-04-02T20:14:56.801Z,9.30
2018-04-02T20:17:23.270Z,9.00
2018-04-02T20:19:49.797Z,8.90
2018-04-02T20:22:16.383Z,8.80
2018-04-02T20:24:42.911Z,8.90
2018-04-02T20:27:10.267Z,8.90
2018-04-02T20:29:36.765Z,8.90
2018-04-02T20:32:03.991Z,8.90
2018-04-02T20:34:30.557Z,8.90
2018-04-02T20:36:57.058Z,8.80
2018-04-02T20:39:23.578Z,8.70
2018-04-02T20:41:50.079Z,8.60
2018-04-02T20:44:17.310Z,8.20
2018-04-02T20:46:43.883Z,8.20
2018-04-02T20:49:10.374Z,8.20
2018-04-02T20:51:37.648Z,8.20
2018-04-02T20:54:04.157Z,8.20
2018-04-02T20:56:30.654Z,8.10
2018-04-02T20:58:57.218Z,8.10
2018-04-02T21:01:23.762Z,8.00
2018-04-02T21:03:50.367Z,7.90
2018-04-02T21:06:16.831Z,7.90
2018-04-02T21:08:44.058Z,7.80
2018-04-02T21:11:10.575Z,7.80
2018-04-02T21:13:37.110Z,8.00
2018-04-02T21:16:03.640Z,7.90
2018-04-02T21:18:30.182Z,8.00
2018-04-02T21:20:56.748Z,7.90
2018-04-02T21:23:23.257Z,7.90
2018-04-02T21:25:49.773Z,7.70
2018-04-02T21:28:16.985Z,7.60
2018-04-02T21:30:43.473Z,7.60
2018-04-02T21:33:10.014Z,7.50
2018-04-02T21:35:36.562Z,7.70
2018-04-02T21:38:03.707Z,7.70
2018-04-02T21:40:30.234Z,7.60
2018-04-02T21:42:56.735Z,7.50
2018-04-02T21:45:23.207Z,7.40
2018-04-02T21:47:49.717Z,7.50
2018-04-02T21:50:16.936Z,7.40
2018-04-02T21:52:43.435Z,7.40
2018-04-02T21:55:09.946Z,7.30
2018-04-02T21:57:36.772Z,7.10
2018-04-02T22:00:03.370Z,7.10
2018-04-02T22:02:29.930Z,6.90
2018-04-02T22:04:56.445Z,6.80
2018-04-02T22:07:23.084Z,6.80
2018-04-02T22:09:49.586Z,6.90
2018-04-02T22:12:16.116Z,6.80
2018-04-02T22:14:42.624Z,6.80
2018-04-02T22:17:09.853Z,6.70
2018-04-02T22:19:37.246Z,6.70
2018-04-02T22:22:04.520Z,6.70
2018-04-02T22:24:31.052Z,6.70
2018-04-02T22:26:57.557Z,6.70
2018-04-02T22:29:24.030Z,6.70
2018-04-02T22:31:50.499Z,6.80
2018-04-02T22:34:17.719Z,6.80
2018-04-02T22:36:44.400Z,6.90
2018-04-02T22:39:11.651Z,6.60
2018-04-02T22:41:38.191Z,6.60
2018-04-02T22:44:04.718Z,6.50
2018-04-02T22:46:31.203Z,6.60
2018-04-02T22:48:57.693Z,6.60
2018-04-02T22:51:24.284Z,6.60
2018-04-02T22:53:50.846Z,6.70
2018-04-02T22:56:17.357Z,6.70
2018-04-02T22:58:43.876Z,6.70
2018-04-02T23:01:10.450Z,6.70
2018-04-02T23:03:36.999Z,6.70
2018-04-02T23:06:03.498Z,6.80
2018-04-02T23:08:29.980Z,7.00
2018-04-02T23:10:56.484Z,7.00
2018-04-02T23:13:23.025Z,7.00
2018-04-02T23:15:49.507Z,7.00
2018-04-02T23:18:16.124Z,7.10
2018-04-02T23:20:42.612Z,7.00
2018-04-02T23:23:09.093Z,7.00
2018-04-02T23:25:36.968Z,7.00
2018-04-02T23:28:03.501Z,7.10
2018-04-02T23:30:30.033Z,7.10
2018-04-02T23:32:56.578Z,7.30
2018-04-02T23:35:23.075Z,7.30
2018-04-02T23:37:49.583Z,7.30
2018-04-02T23:40:16.086Z,7.60
2018-04-02T23:42:42.606Z,7.40
2018-04-02T23:45:09.126Z,7.60
2018-04-02T23:47:35.646Z,7.70
2018-04-02T23:50:02.146Z,7.60
2018-04-02T23:52:28.716Z,7.60
2018-04-02T23:54:55.168Z,7.60
2018-04-02T23:57:21.649Z,7.60
2018-04-02T23:59:48.195Z,7.60
